sensor_id;sensor_type;location;lat;lon;timestamp;temperature;humidity
17154;DHT22;8692;52.164;7.558;2023-11-19T00:00:26;9.70;99.90
17154;DHT22;8692;52.164;7.558;2023-11-19T00:02:54;9.80;99.90
17154;DHT22;8692;52.164;7.558;2023-11-19T00:05:23;9.80;99.90
17154;DHT22;8692;52.164;7.558;2023-11-19T00:07:51;9.80;99.90
17154;DHT22;8692;52.164;7.558;2023-11-19T00:10:19;9.80;99.90
17154;DHT22;8692;52.164;7.558;2023-11-19T00:12:48;9.80;99.90
17154;DHT22;8692;52.164;7.558;2023-11-19T00:15:18;9.80;99.90
17154;DHT22;8692;52.164;7.558;2023-11-19T00:17:48;9.90;99.90
17154;DHT22;8692;52.164;7.558;2023-11-19T00:20:18;10.00;99.90
17154;DHT22;8692;52.164;7.558;2023-11-19T00:22:46;10.00;99.90
17154;DHT22;8692;52.164;7.558;2023-11-19T00:25:18;10.00;99.90
17154;DHT22;8692;52.164;7.558;2023-11-19T00:27:46;10.00;99.90
17154;DHT22;8692;52.164;7.558;2023-11-19T00:30:15;10.00;99.90
17154;DHT22;8692;52.164;7.558;2023-11-19T00:32:45;10.00;99.90
17154;DHT22;8692;52.164;7.558;2023-11-19T00:35:13;10.10;99.90
17154;DHT22;8692;52.164;7.558;2023-11-19T00:37:42;10.10;99.90
17154;DHT22;8692;52.164;7.558;2023-11-19T00:40:12;10.10;99.90
17154;DHT22;8692;52.164;7.558;2023-11-19T00:42:43;10.10;99.90
17154;DHT22;8692;52.164;7.558;2023-11-19T00:45:11;10.20;99.90
17154;DHT22;8692;52.164;7.558;2023-11-19T00:47:39;10.20;99.90
17154;DHT22;8692;52.164;7.558;2023-11-19T00:50:10;10.20;99.90
17154;DHT22;8692;52.164;7.558;2023-11-19T00:52:39;10.20;99.90
17154;DHT22;8692;52.164;7.558;2023-11-19T00:55:08;10.20;99.90
17154;DHT22;8692;52.164;7.558;2023-11-19T00:57:36;10.20;99.90
17154;DHT22;8692;52.164;7.558;2023-11-19T01:00:05;10.20;99.90
17154;DHT22;8692;52.164;7.558;2023-11-19T01:02:44;10.20;99.90
17154;DHT22;8692;52.164;7.558;2023-11-19T01:05:14;10.30;99.90
17154;DHT22;8692;52.164;7.558;2023-11-19T01:07:42;10.30;99.90
17154;DHT22;8692;52.164;7.558;2023-11-19T01:10:11;10.30;99.90
17154;DHT22;8692;52.164;7.558;2023-11-19T01:12:39;10.30;99.90
17154;DHT22;8692;52.164;7.558;2023-11-19T01:15:07;10.30;99.90
17154;DHT22;8692;52.164;7.558;2023-11-19T01:17:36;10.30;99.90
17154;DHT22;8692;52.164;7.558;2023-11-19T01:20:05;10.40;99.90
17154;DHT22;8692;52.164;7.558;2023-11-19T01:22:35;10.40;99.90
17154;DHT22;8692;52.164;7.558;2023-11-19T01:25:05;10.40;99.90
17154;DHT22;8692;52.164;7.558;2023-11-19T01:27:33;10.40;99.90
17154;DHT22;8692;52.164;7.558;2023-11-19T01:30:02;10.40;99.90
17154;DHT22;8692;52.164;7.558;2023-11-19T01:32:31;10.50;99.90
17154;DHT22;8692;52.164;7.558;2023-11-19T01:34:59;10.50;99.90
17154;DHT22;8692;52.164;7.558;2023-11-19T01:37:28;10.50;99.90
17154;DHT22;8692;52.164;7.558;2023-11-19T01:39:57;10.50;99.90
17154;DHT22;8692;52.164;7.558;2023-11-19T01:42:25;10.60;99.90
17154;DHT22;8692;52.164;7.558;2023-11-19T01:45:00;10.60;99.90
17154;DHT22;8692;52.164;7.558;2023-11-19T01:47:30;10.60;99.90
17154;DHT22;8692;52.164;7.558;2023-11-19T01:49:59;10.70;99.90
17154;DHT22;8692;52.164;7.558;2023-11-19T01:52:27;10.70;99.90
17154;DHT22;8692;52.164;7.558;2023-11-19T01:54:57;10.80;99.90
17154;DHT22;8692;52.164;7.558;2023-11-19T01:57:25;10.80;99.90
17154;DHT22;8692;52.164;7.558;2023-11-19T01:59:53;10.80;99.90
17154;DHT22;8692;52.164;7.558;2023-11-19T02:02:22;10.80;99.90
17154;DHT22;8692;52.164;7.558;2023-11-19T02:04:51;10.80;99.90
17154;DHT22;8692;52.164;7.558;2023-11-19T02:07:20;10.90;99.90
17154;DHT22;8692;52.164;7.558;2023-11-19T02:09:48;10.90;99.90
17154;DHT22;8692;52.164;7.558;2023-11-19T02:12:18;10.90;99.90
17154;DHT22;8692;52.164;7.558;2023-11-19T02:14:47;11.00;99.90
17154;DHT22;8692;52.164;7.558;2023-11-19T02:17:27;11.00;99.90
17154;DHT22;8692;52.164;7.558;2023-11-19T02:19:57;11.00;99.90
17154;DHT22;8692;52.164;7.558;2023-11-19T02:22:27;11.00;99.90
17154;DHT22;8692;52.164;7.558;2023-11-19T02:25:00;11.00;99.90
17154;DHT22;8692;52.164;7.558;2023-11-19T02:27:43;11.10;99.90
17154;DHT22;8692;52.164;7.558;2023-11-19T02:30:12;11.10;99.90
17154;DHT22;8692;52.164;7.558;2023-11-19T02:32:41;11.10;99.90
17154;DHT22;8692;52.164;7.558;2023-11-19T02:35:09;11.10;99.90
17154;DHT22;8692;52.164;7.558;2023-11-19T02:37:38;11.20;99.90
17154;DHT22;8692;52.164;7.558;2023-11-19T02:40:07;11.20;99.90
17154;DHT22;8692;52.164;7.558;2023-11-19T02:42:37;11.20;99.90
17154;DHT22;8692;52.164;7.558;2023-11-19T02:45:08;11.20;99.90
17154;DHT22;8692;52.164;7.558;2023-11-19T02:47:41;11.20;99.90
17154;DHT22;8692;52.164;7.558;2023-11-19T02:50:10;11.30;99.90
17154;DHT22;8692;52.164;7.558;2023-11-19T02:52:41;11.30;99.90
17154;DHT22;8692;52.164;7.558;2023-11-19T02:55:10;11.30;99.90
17154;DHT22;8692;52.164;7.558;2023-11-19T02:57:39;11.40;99.90
17154;DHT22;8692;52.164;7.558;2023-11-19T03:00:15;11.40;99.90
17154;DHT22;8692;52.164;7.558;2023-11-19T03:02:44;11.40;99.90
17154;DHT22;8692;52.164;7.558;2023-11-19T03:05:13;11.40;99.90
17154;DHT22;8692;52.164;7.558;2023-11-19T03:07:43;11.40;99.90
17154;DHT22;8692;52.164;7.558;2023-11-19T03:10:12;11.40;99.90
17154;DHT22;8692;52.164;7.558;2023-11-19T03:12:43;11.40;99.90
17154;DHT22;8692;52.164;7.558;2023-11-19T03:15:13;11.50;99.90
17154;DHT22;8692;52.164;7.558;2023-11-19T03:17:42;11.50;99.90
17154;DHT22;8692;52.164;7.558;2023-11-19T03:20:13;11.50;99.90
17154;DHT22;8692;52.164;7.558;2023-11-19T03:22:43;11.50;99.90
17154;DHT22;8692;52.164;7.558;2023-11-19T03:25:11;11.50;99.90
17154;DHT22;8692;52.164;7.558;2023-11-19T03:27:40;11.50;99.90
17154;DHT22;8692;52.164;7.558;2023-11-19T03:30:10;11.60;99.90
17154;DHT22;8692;52.164;7.558;2023-11-19T03:32:40;11.60;99.90
17154;DHT22;8692;52.164;7.558;2023-11-19T03:35:08;11.60;99.90
17154;DHT22;8692;52.164;7.558;2023-11-19T03:37:37;11.60;99.90
17154;DHT22;8692;52.164;7.558;2023-11-19T03:40:07;11.60;99.90
17154;DHT22;8692;52.164;7.558;2023-11-19T03:42:35;11.60;99.90
17154;DHT22;8692;52.164;7.558;2023-11-19T03:45:03;11.60;99.90
17154;DHT22;8692;52.164;7.558;2023-11-19T03:47:32;11.70;99.90
17154;DHT22;8692;52.164;7.558;2023-11-19T03:50:02;11.70;99.90
17154;DHT22;8692;52.164;7.558;2023-11-19T03:52:30;11.70;99.90
17154;DHT22;8692;52.164;7.558;2023-11-19T03:55:10;11.70;99.90
17154;DHT22;8692;52.164;7.558;2023-11-19T03:57:39;11.70;99.90
17154;DHT22;8692;52.164;7.558;2023-11-19T04:00:08;11.70;99.90
17154;DHT22;8692;52.164;7.558;2023-11-19T04:02:40;11.70;99.90
17154;DHT22;8692;52.164;7.558;2023-11-19T04:05:09;11.70;99.90
17154;DHT22;8692;52.164;7.558;2023-11-19T04:07:37;11.70;99.90
17154;DHT22;8692;52.164;7.558;2023-11-19T04:10:06;11.80;99.90
17154;DHT22;8692;52.164;7.558;2023-11-19T04:12:35;11.70;99.90
17154;DHT22;8692;52.164;7.558;2023-11-19T04:15:04;11.80;99.90
17154;DHT22;8692;52.164;7.558;2023-11-19T04:17:32;11.80;99.90
17154;DHT22;8692;52.164;7.558;2023-11-19T04:20:00;11.80;99.90
17154;DHT22;8692;52.164;7.558;2023-11-19T04:22:32;11.80;99.90
17154;DHT22;8692;52.164;7.558;2023-11-19T04:25:00;11.80;99.90
17154;DHT22;8692;52.164;7.558;2023-11-19T04:27:28;11.80;99.90
17154;DHT22;8692;52.164;7.558;2023-11-19T04:29:56;11.80;99.90
17154;DHT22;8692;52.164;7.558;2023-11-19T04:32:24;11.80;99.90
17154;DHT22;8692;52.164;7.558;2023-11-19T04:34:53;11.80;99.90
17154;DHT22;8692;52.164;7.558;2023-11-19T04:37:21;11.80;99.90
17154;DHT22;8692;52.164;7.558;2023-11-19T04:39:51;11.80;99.90
17154;DHT22;8692;52.164;7.558;2023-11-19T04:42:19;11.80;99.90
17154;DHT22;8692;52.164;7.558;2023-11-19T04:44:50;11.80;99.90
17154;DHT22;8692;52.164;7.558;2023-11-19T04:47:17;11.80;99.90
17154;DHT22;8692;52.164;7.558;2023-11-19T04:49:46;11.80;99.90
17154;DHT22;8692;52.164;7.558;2023-11-19T04:52:14;11.80;99.90
17154;DHT22;8692;52.164;7.558;2023-11-19T04:54:42;11.80;99.90
17154;DHT22;8692;52.164;7.558;2023-11-19T04:57:12;11.80;99.90
17154;DHT22;8692;52.164;7.558;2023-11-19T04:59:40;11.80;99.90
17154;DHT22;8692;52.164;7.558;2023-11-19T05:02:08;11.80;99.90
17154;DHT22;8692;52.164;7.558;2023-11-19T05:04:37;11.80;99.90
17154;DHT22;8692;52.164;7.558;2023-11-19T05:07:05;11.80;99.90
17154;DHT22;8692;52.164;7.558;2023-11-19T05:09:33;11.80;99.90
17154;DHT22;8692;52.164;7.558;2023-11-19T05:12:05;11.80;99.90
17154;DHT22;8692;52.164;7.558;2023-11-19T05:14:38;11.80;99.90
17154;DHT22;8692;52.164;7.558;2023-11-19T05:17:05;11.80;99.90
17154;DHT22;8692;52.164;7.558;2023-11-19T05:19:34;11.70;99.90
17154;DHT22;8692;52.164;7.558;2023-11-19T05:22:03;11.70;99.90
17154;DHT22;8692;52.164;7.558;2023-11-19T05:24:31;11.70;99.90
17154;DHT22;8692;52.164;7.558;2023-11-19T05:26:59;11.70;99.90
17154;DHT22;8692;52.164;7.558;2023-11-19T05:29:28;11.70;99.90
17154;DHT22;8692;52.164;7.558;2023-11-19T05:31:58;11.70;99.90
17154;DHT22;8692;52.164;7.558;2023-11-19T05:34:27;11.70;99.90
17154;DHT22;8692;52.164;7.558;2023-11-19T05:36:55;11.60;99.90
17154;DHT22;8692;52.164;7.558;2023-11-19T05:39:24;11.60;99.90
17154;DHT22;8692;52.164;7.558;2023-11-19T05:41:51;11.50;99.90
17154;DHT22;8692;52.164;7.558;2023-11-19T05:44:19;11.50;99.90
17154;DHT22;8692;52.164;7.558;2023-11-19T05:46:48;11.40;99.90
17154;DHT22;8692;52.164;7.558;2023-11-19T05:49:17;11.40;99.90
17154;DHT22;8692;52.164;7.558;2023-11-19T05:51:45;11.40;99.90
17154;DHT22;8692;52.164;7.558;2023-11-19T05:54:13;11.40;99.90
17154;DHT22;8692;52.164;7.558;2023-11-19T05:56:41;11.40;99.90
17154;DHT22;8692;52.164;7.558;2023-11-19T05:59:09;11.40;99.90
17154;DHT22;8692;52.164;7.558;2023-11-19T06:01:42;11.40;99.90
17154;DHT22;8692;52.164;7.558;2023-11-19T06:04:10;11.40;99.90
17154;DHT22;8692;52.164;7.558;2023-11-19T06:06:40;11.40;99.90
17154;DHT22;8692;52.164;7.558;2023-11-19T06:09:08;11.40;99.90
17154;DHT22;8692;52.164;7.558;2023-11-19T06:11:40;11.40;99.90
17154;DHT22;8692;52.164;7.558;2023-11-19T06:14:08;11.40;99.90
17154;DHT22;8692;52.164;7.558;2023-11-19T06:16:36;11.40;99.90
17154;DHT22;8692;52.164;7.558;2023-11-19T06:19:07;11.40;99.90
17154;DHT22;8692;52.164;7.558;2023-11-19T06:21:37;11.40;99.90
17154;DHT22;8692;52.164;7.558;2023-11-19T06:24:06;11.30;99.90
17154;DHT22;8692;52.164;7.558;2023-11-19T06:26:35;11.30;99.90
17154;DHT22;8692;52.164;7.558;2023-11-19T06:29:03;11.30;99.90
17154;DHT22;8692;52.164;7.558;2023-11-19T06:31:31;11.30;99.90
17154;DHT22;8692;52.164;7.558;2023-11-19T06:33:59;11.20;99.90
17154;DHT22;8692;52.164;7.558;2023-11-19T06:36:27;11.30;99.90
17154;DHT22;8692;52.164;7.558;2023-11-19T06:38:55;11.30;99.90
17154;DHT22;8692;52.164;7.558;2023-11-19T06:41:25;11.20;99.90
17154;DHT22;8692;52.164;7.558;2023-11-19T06:43:53;11.20;99.90
17154;DHT22;8692;52.164;7.558;2023-11-19T06:46:21;11.20;99.90
17154;DHT22;8692;52.164;7.558;2023-11-19T06:48:49;11.20;99.90
17154;DHT22;8692;52.164;7.558;2023-11-19T06:51:17;11.30;99.90
17154;DHT22;8692;52.164;7.558;2023-11-19T06:53:45;11.30;99.90
17154;DHT22;8692;52.164;7.558;2023-11-19T06:56:20;11.20;99.90
17154;DHT22;8692;52.164;7.558;2023-11-19T06:58:50;11.20;99.90
17154;DHT22;8692;52.164;7.558;2023-11-19T07:01:19;11.20;99.90
17154;DHT22;8692;52.164;7.558;2023-11-19T07:03:47;11.20;99.90
17154;DHT22;8692;52.164;7.558;2023-11-19T07:06:16;11.30;99.90
17154;DHT22;8692;52.164;7.558;2023-11-19T07:08:44;11.20;99.90
17154;DHT22;8692;52.164;7.558;2023-11-19T07:11:13;11.30;99.90
17154;DHT22;8692;52.164;7.558;2023-11-19T07:13:43;11.30;99.90
17154;DHT22;8692;52.164;7.558;2023-11-19T07:16:15;11.30;99.90
17154;DHT22;8692;52.164;7.558;2023-11-19T07:18:43;11.30;99.90
17154;DHT22;8692;52.164;7.558;2023-11-19T07:21:11;11.30;99.90
17154;DHT22;8692;52.164;7.558;2023-11-19T07:23:39;11.30;99.90
17154;DHT22;8692;52.164;7.558;2023-11-19T07:26:08;11.30;99.90
17154;DHT22;8692;52.164;7.558;2023-11-19T07:28:36;11.30;99.90
17154;DHT22;8692;52.164;7.558;2023-11-19T07:31:06;11.30;99.90
17154;DHT22;8692;52.164;7.558;2023-11-19T07:33:37;11.30;99.90
17154;DHT22;8692;52.164;7.558;2023-11-19T07:36:05;11.30;99.90
17154;DHT22;8692;52.164;7.558;2023-11-19T07:38:34;11.20;99.90
17154;DHT22;8692;52.164;7.558;2023-11-19T07:41:02;11.20;99.90
17154;DHT22;8692;52.164;7.558;2023-11-19T07:43:33;11.20;99.90
17154;DHT22;8692;52.164;7.558;2023-11-19T07:46:01;11.20;99.90
17154;DHT22;8692;52.164;7.558;2023-11-19T07:48:30;11.20;99.90
17154;DHT22;8692;52.164;7.558;2023-11-19T07:51:00;11.20;99.90
17154;DHT22;8692;52.164;7.558;2023-11-19T07:53:28;11.20;99.90
17154;DHT22;8692;52.164;7.558;2023-11-19T07:55:56;11.20;99.90
17154;DHT22;8692;52.164;7.558;2023-11-19T07:58:26;11.20;99.90
17154;DHT22;8692;52.164;7.558;2023-11-19T08:00:54;11.20;99.90
17154;DHT22;8692;52.164;7.558;2023-11-19T08:03:22;11.30;99.90
17154;DHT22;8692;52.164;7.558;2023-11-19T08:05:50;11.30;99.90
17154;DHT22;8692;52.164;7.558;2023-11-19T08:08:20;11.30;99.90
17154;DHT22;8692;52.164;7.558;2023-11-19T08:10:48;11.30;99.90
17154;DHT22;8692;52.164;7.558;2023-11-19T08:13:18;11.20;99.90
17154;DHT22;8692;52.164;7.558;2023-11-19T08:15:47;11.30;99.90
17154;DHT22;8692;52.164;7.558;2023-11-19T08:18:15;11.30;99.90
17154;DHT22;8692;52.164;7.558;2023-11-19T08:20:45;11.30;99.90
17154;DHT22;8692;52.164;7.558;2023-11-19T08:23:15;11.30;99.90
17154;DHT22;8692;52.164;7.558;2023-11-19T08:25:45;11.30;99.90
17154;DHT22;8692;52.164;7.558;2023-11-19T08:28:13;11.30;99.90
17154;DHT22;8692;52.164;7.558;2023-11-19T08:30:41;11.30;99.90
17154;DHT22;8692;52.164;7.558;2023-11-19T08:33:10;11.30;99.90
17154;DHT22;8692;52.164;7.558;2023-11-19T08:35:38;11.30;99.90
17154;DHT22;8692;52.164;7.558;2023-11-19T08:38:06;11.30;99.90
17154;DHT22;8692;52.164;7.558;2023-11-19T08:40:34;11.30;99.90
17154;DHT22;8692;52.164;7.558;2023-11-19T08:43:04;11.40;99.90
17154;DHT22;8692;52.164;7.558;2023-11-19T08:45:33;11.40;99.90
17154;DHT22;8692;52.164;7.558;2023-11-19T08:48:01;11.40;99.90
17154;DHT22;8692;52.164;7.558;2023-11-19T08:50:29;11.40;99.90
17154;DHT22;8692;52.164;7.558;2023-11-19T08:52:57;11.40;99.90
17154;DHT22;8692;52.164;7.558;2023-11-19T08:55:25;11.40;99.90
17154;DHT22;8692;52.164;7.558;2023-11-19T08:57:53;11.40;99.90
17154;DHT22;8692;52.164;7.558;2023-11-19T09:00:22;11.40;99.90
17154;DHT22;8692;52.164;7.558;2023-11-19T09:02:50;11.40;99.90
17154;DHT22;8692;52.164;7.558;2023-11-19T09:05:18;11.40;99.90
17154;DHT22;8692;52.164;7.558;2023-11-19T09:07:46;11.40;99.90
17154;DHT22;8692;52.164;7.558;2023-11-19T09:10:18;11.40;99.90
17154;DHT22;8692;52.164;7.558;2023-11-19T09:12:46;11.30;99.90
17154;DHT22;8692;52.164;7.558;2023-11-19T09:15:14;11.30;99.90
17154;DHT22;8692;52.164;7.558;2023-11-19T09:17:43;11.40;99.90
17154;DHT22;8692;52.164;7.558;2023-11-19T09:20:12;11.40;99.90
17154;DHT22;8692;52.164;7.558;2023-11-19T09:22:42;11.30;99.90
17154;DHT22;8692;52.164;7.558;2023-11-19T09:25:10;11.40;99.90
17154;DHT22;8692;52.164;7.558;2023-11-19T09:27:38;11.40;99.90
17154;DHT22;8692;52.164;7.558;2023-11-19T09:30:07;11.40;99.90
17154;DHT22;8692;52.164;7.558;2023-11-19T09:32:35;11.40;99.90
17154;DHT22;8692;52.164;7.558;2023-11-19T09:35:06;11.40;99.90
17154;DHT22;8692;52.164;7.558;2023-11-19T09:37:34;11.50;99.90
17154;DHT22;8692;52.164;7.558;2023-11-19T09:40:02;11.50;99.90
17154;DHT22;8692;52.164;7.558;2023-11-19T09:42:39;11.60;99.90
17154;DHT22;8692;52.164;7.558;2023-11-19T09:45:13;11.60;99.90
17154;DHT22;8692;52.164;7.558;2023-11-19T09:47:44;11.60;99.90
17154;DHT22;8692;52.164;7.558;2023-11-19T09:50:16;11.70;99.90
17154;DHT22;8692;52.164;7.558;2023-11-19T09:52:45;11.70;99.90
17154;DHT22;8692;52.164;7.558;2023-11-19T09:55:14;11.70;99.90
17154;DHT22;8692;52.164;7.558;2023-11-19T09:57:43;11.80;99.90
17154;DHT22;8692;52.164;7.558;2023-11-19T10:00:14;11.90;99.90
17154;DHT22;8692;52.164;7.558;2023-11-19T10:02:43;12.00;99.90
17154;DHT22;8692;52.164;7.558;2023-11-19T10:05:15;12.00;99.90
17154;DHT22;8692;52.164;7.558;2023-11-19T10:07:43;12.10;99.90
17154;DHT22;8692;52.164;7.558;2023-11-19T10:10:12;12.10;99.90
17154;DHT22;8692;52.164;7.558;2023-11-19T10:12:46;12.10;99.90
17154;DHT22;8692;52.164;7.558;2023-11-19T10:15:20;12.10;99.90
17154;DHT22;8692;52.164;7.558;2023-11-19T10:17:49;12.10;99.90
17154;DHT22;8692;52.164;7.558;2023-11-19T10:20:18;12.10;99.90
17154;DHT22;8692;52.164;7.558;2023-11-19T10:22:46;12.10;99.90
17154;DHT22;8692;52.164;7.558;2023-11-19T10:25:22;12.10;99.90
17154;DHT22;8692;52.164;7.558;2023-11-19T10:27:51;12.10;99.90
17154;DHT22;8692;52.164;7.558;2023-11-19T10:30:20;12.00;99.90
17154;DHT22;8692;52.164;7.558;2023-11-19T10:33:05;12.00;99.90
17154;DHT22;8692;52.164;7.558;2023-11-19T10:35:35;12.00;99.90
17154;DHT22;8692;52.164;7.558;2023-11-19T10:38:13;11.90;99.90
17154;DHT22;8692;52.164;7.558;2023-11-19T10:40:42;11.90;99.90
17154;DHT22;8692;52.164;7.558;2023-11-19T10:43:10;11.90;99.90
17154;DHT22;8692;52.164;7.558;2023-11-19T10:45:39;11.80;99.90
17154;DHT22;8692;52.164;7.558;2023-11-19T10:48:07;11.80;99.90
17154;DHT22;8692;52.164;7.558;2023-11-19T10:50:37;11.80;99.90
17154;DHT22;8692;52.164;7.558;2023-11-19T10:53:09;11.70;99.90
17154;DHT22;8692;52.164;7.558;2023-11-19T10:55:39;11.70;99.90
17154;DHT22;8692;52.164;7.558;2023-11-19T10:58:08;11.70;99.90
17154;DHT22;8692;52.164;7.558;2023-11-19T11:00:38;11.70;99.90
17154;DHT22;8692;52.164;7.558;2023-11-19T11:03:11;11.70;99.90
17154;DHT22;8692;52.164;7.558;2023-11-19T11:05:46;11.80;99.90
17154;DHT22;8692;52.164;7.558;2023-11-19T11:08:15;11.80;99.90
17154;DHT22;8692;52.164;7.558;2023-11-19T11:10:45;11.80;99.90
17154;DHT22;8692;52.164;7.558;2023-11-19T11:13:18;11.80;99.90
17154;DHT22;8692;52.164;7.558;2023-11-19T11:15:47;11.80;99.90
17154;DHT22;8692;52.164;7.558;2023-11-19T11:18:16;11.80;99.90
17154;DHT22;8692;52.164;7.558;2023-11-19T11:20:46;11.90;99.90
17154;DHT22;8692;52.164;7.558;2023-11-19T11:23:33;11.90;99.90
17154;DHT22;8692;52.164;7.558;2023-11-19T11:26:20;11.90;99.90
17154;DHT22;8692;52.164;7.558;2023-11-19T11:28:56;12.00;99.90
17154;DHT22;8692;52.164;7.558;2023-11-19T11:31:36;12.00;99.90
17154;DHT22;8692;52.164;7.558;2023-11-19T11:34:29;12.00;99.90
17154;DHT22;8692;52.164;7.558;2023-11-19T11:37:09;12.10;99.90
17154;DHT22;8692;52.164;7.558;2023-11-19T11:39:40;12.10;99.90
17154;DHT22;8692;52.164;7.558;2023-11-19T11:42:33;12.10;99.90
17154;DHT22;8692;52.164;7.558;2023-11-19T11:45:03;12.10;99.90
17154;DHT22;8692;52.164;7.558;2023-11-19T11:50:53;12.10;99.90
17154;DHT22;8692;52.164;7.558;2023-11-19T11:53:23;12.10;99.90
17154;DHT22;8692;52.164;7.558;2023-11-19T11:55:55;12.10;99.90
17154;DHT22;8692;52.164;7.558;2023-11-19T11:58:28;12.10;99.90
17154;DHT22;8692;52.164;7.558;2023-11-19T12:00:58;12.10;99.90
17154;DHT22;8692;52.164;7.558;2023-11-19T12:03:28;12.10;99.90
17154;DHT22;8692;52.164;7.558;2023-11-19T12:05:58;12.10;99.90
17154;DHT22;8692;52.164;7.558;2023-11-19T12:08:29;12.10;99.90
17154;DHT22;8692;52.164;7.558;2023-11-19T12:10:58;12.10;99.90
17154;DHT22;8692;52.164;7.558;2023-11-19T12:13:46;12.20;99.90
17154;DHT22;8692;52.164;7.558;2023-11-19T12:16:15;12.30;99.90
17154;DHT22;8692;52.164;7.558;2023-11-19T12:18:43;12.30;99.90
17154;DHT22;8692;52.164;7.558;2023-11-19T12:21:27;12.30;99.90
17154;DHT22;8692;52.164;7.558;2023-11-19T12:23:58;12.30;99.90
17154;DHT22;8692;52.164;7.558;2023-11-19T12:26:36;12.40;99.90
17154;DHT22;8692;52.164;7.558;2023-11-19T12:29:04;12.40;99.90
17154;DHT22;8692;52.164;7.558;2023-11-19T12:31:35;12.50;99.90
17154;DHT22;8692;52.164;7.558;2023-11-19T12:34:08;12.50;99.90
17154;DHT22;8692;52.164;7.558;2023-11-19T12:36:40;12.50;99.90
17154;DHT22;8692;52.164;7.558;2023-11-19T12:39:12;12.50;99.90
17154;DHT22;8692;52.164;7.558;2023-11-19T12:41:51;12.40;99.90
17154;DHT22;8692;52.164;7.558;2023-11-19T12:44:19;12.50;99.90
17154;DHT22;8692;52.164;7.558;2023-11-19T12:46:59;12.50;99.90
17154;DHT22;8692;52.164;7.558;2023-11-19T12:49:28;12.40;99.90
17154;DHT22;8692;52.164;7.558;2023-11-19T12:51:56;12.40;99.90
17154;DHT22;8692;52.164;7.558;2023-11-19T12:54:36;12.50;99.90
17154;DHT22;8692;52.164;7.558;2023-11-19T12:57:04;12.50;99.90
17154;DHT22;8692;52.164;7.558;2023-11-19T12:59:32;12.50;99.90
17154;DHT22;8692;52.164;7.558;2023-11-19T13:02:00;12.60;99.90
17154;DHT22;8692;52.164;7.558;2023-11-19T13:04:29;12.60;99.90
17154;DHT22;8692;52.164;7.558;2023-11-19T13:06:58;12.60;99.90
17154;DHT22;8692;52.164;7.558;2023-11-19T13:09:29;12.60;99.90
17154;DHT22;8692;52.164;7.558;2023-11-19T13:11:59;12.60;99.90
17154;DHT22;8692;52.164;7.558;2023-11-19T13:14:36;12.70;99.90
17154;DHT22;8692;52.164;7.558;2023-11-19T13:17:05;12.70;99.90
17154;DHT22;8692;52.164;7.558;2023-11-19T13:19:33;12.70;99.90
17154;DHT22;8692;52.164;7.558;2023-11-19T13:22:01;12.70;99.90
17154;DHT22;8692;52.164;7.558;2023-11-19T13:24:29;12.70;99.90
17154;DHT22;8692;52.164;7.558;2023-11-19T13:26:59;12.60;99.90
17154;DHT22;8692;52.164;7.558;2023-11-19T13:29:27;12.60;99.90
17154;DHT22;8692;52.164;7.558;2023-11-19T13:31:58;12.60;99.90
17154;DHT22;8692;52.164;7.558;2023-11-19T13:34:26;12.50;99.90
17154;DHT22;8692;52.164;7.558;2023-11-19T13:36:54;12.50;99.90
17154;DHT22;8692;52.164;7.558;2023-11-19T13:39:23;12.40;99.90
17154;DHT22;8692;52.164;7.558;2023-11-19T13:41:51;12.40;99.90
17154;DHT22;8692;52.164;7.558;2023-11-19T13:44:39;12.30;99.90
17154;DHT22;8692;52.164;7.558;2023-11-19T13:47:09;12.20;99.90
17154;DHT22;8692;52.164;7.558;2023-11-19T13:49:37;12.20;99.90
17154;DHT22;8692;52.164;7.558;2023-11-19T13:52:06;12.20;99.90
17154;DHT22;8692;52.164;7.558;2023-11-19T13:54:33;12.10;99.90
17154;DHT22;8692;52.164;7.558;2023-11-19T13:57:02;12.10;99.90
17154;DHT22;8692;52.164;7.558;2023-11-19T13:59:31;12.00;99.90
17154;DHT22;8692;52.164;7.558;2023-11-19T14:02:01;12.00;99.90
17154;DHT22;8692;52.164;7.558;2023-11-19T14:04:29;12.00;99.90
17154;DHT22;8692;52.164;7.558;2023-11-19T14:06:57;11.90;99.90
17154;DHT22;8692;52.164;7.558;2023-11-19T14:09:25;11.90;99.90
17154;DHT22;8692;52.164;7.558;2023-11-19T14:11:53;11.90;99.90
17154;DHT22;8692;52.164;7.558;2023-11-19T14:14:21;11.90;99.90
17154;DHT22;8692;52.164;7.558;2023-11-19T14:16:49;11.90;99.90
17154;DHT22;8692;52.164;7.558;2023-11-19T14:19:19;11.90;99.90
17154;DHT22;8692;52.164;7.558;2023-11-19T14:21:47;11.90;99.90
17154;DHT22;8692;52.164;7.558;2023-11-19T14:24:15;11.90;99.90
17154;DHT22;8692;52.164;7.558;2023-11-19T14:26:45;11.90;99.90
17154;DHT22;8692;52.164;7.558;2023-11-19T14:29:13;11.90;99.90
17154;DHT22;8692;52.164;7.558;2023-11-19T14:31:41;11.90;99.90
17154;DHT22;8692;52.164;7.558;2023-11-19T14:34:09;11.90;99.90
17154;DHT22;8692;52.164;7.558;2023-11-19T14:36:39;11.90;99.90
17154;DHT22;8692;52.164;7.558;2023-11-19T14:39:07;11.90;99.90
17154;DHT22;8692;52.164;7.558;2023-11-19T14:41:34;11.90;99.90
17154;DHT22;8692;52.164;7.558;2023-11-19T14:44:02;11.90;99.90
17154;DHT22;8692;52.164;7.558;2023-11-19T14:46:31;11.90;99.90
17154;DHT22;8692;52.164;7.558;2023-11-19T14:48:59;11.90;99.90
17154;DHT22;8692;52.164;7.558;2023-11-19T14:51:27;11.90;99.90
17154;DHT22;8692;52.164;7.558;2023-11-19T14:53:56;11.90;99.90
17154;DHT22;8692;52.164;7.558;2023-11-19T14:56:24;11.90;99.90
17154;DHT22;8692;52.164;7.558;2023-11-19T14:58:52;11.90;99.90
17154;DHT22;8692;52.164;7.558;2023-11-19T15:01:20;11.90;99.90
17154;DHT22;8692;52.164;7.558;2023-11-19T15:03:48;11.90;99.90
17154;DHT22;8692;52.164;7.558;2023-11-19T15:06:23;11.90;99.90
17154;DHT22;8692;52.164;7.558;2023-11-19T15:17:24;11.90;99.90
17154;DHT22;8692;52.164;7.558;2023-11-19T15:19:54;11.90;99.90
17154;DHT22;8692;52.164;7.558;2023-11-19T15:22:23;11.90;99.90
17154;DHT22;8692;52.164;7.558;2023-11-19T15:24:51;11.90;99.90
17154;DHT22;8692;52.164;7.558;2023-11-19T15:27:19;11.90;99.90
17154;DHT22;8692;52.164;7.558;2023-11-19T15:29:47;11.90;99.90
17154;DHT22;8692;52.164;7.558;2023-11-19T15:32:15;11.90;99.90
17154;DHT22;8692;52.164;7.558;2023-11-19T15:34:43;11.90;99.90
17154;DHT22;8692;52.164;7.558;2023-11-19T15:37:11;11.80;99.90
17154;DHT22;8692;52.164;7.558;2023-11-19T15:39:41;11.80;99.90
17154;DHT22;8692;52.164;7.558;2023-11-19T15:42:09;11.80;99.90
17154;DHT22;8692;52.164;7.558;2023-11-19T15:44:38;11.70;99.90
17154;DHT22;8692;52.164;7.558;2023-11-19T15:47:06;11.80;99.90
17154;DHT22;8692;52.164;7.558;2023-11-19T15:49:36;11.70;99.90
17154;DHT22;8692;52.164;7.558;2023-11-19T15:52:05;11.60;99.90
17154;DHT22;8692;52.164;7.558;2023-11-19T15:54:33;11.60;99.90
17154;DHT22;8692;52.164;7.558;2023-11-19T15:57:04;11.60;99.90
17154;DHT22;8692;52.164;7.558;2023-11-19T15:59:32;11.70;99.90
17154;DHT22;8692;52.164;7.558;2023-11-19T16:02:00;11.60;99.90
17154;DHT22;8692;52.164;7.558;2023-11-19T16:04:29;11.60;99.90
17154;DHT22;8692;52.164;7.558;2023-11-19T16:06:57;11.60;99.90
17154;DHT22;8692;52.164;7.558;2023-11-19T16:09:26;11.60;99.90
17154;DHT22;8692;52.164;7.558;2023-11-19T16:11:55;11.60;99.90
17154;DHT22;8692;52.164;7.558;2023-11-19T16:14:23;11.60;99.90